createdAt,value
2018-05-10T00:00:49.339Z,4.00
2018-05-10T00:01:26.371Z,4.53
2018-05-10T00:02:07.664Z,4.18
2018-05-10T00:03:26.306Z,4.20
2018-05-10T00:04:04.353Z,4.10
2018-05-10T00:04:41.108Z,4.25
2018-05-10T00:05:22.026Z,4.22
2018-05-10T00:05:59.598Z,3.97
2018-05-10T00:06:41.236Z,4.45
2018-05-10T00:07:20.013Z,3.75
2018-05-10T00:07:57.622Z,4.00
2018-05-10T00:08:38.129Z,4.25
2018-05-10T00:09:13.324Z,4.50
2018-05-10T00:09:50.133Z,4.05
2018-05-10T00:11:11.668Z,4.35
2018-05-10T00:11:47.191Z,4.20
2018-05-10T00:12:25.285Z,4.28
2018-05-10T00:13:09.434Z,4.47
2018-05-10T00:13:54.711Z,4.55
2018-05-10T00:14:29.189Z,4.20
2018-05-10T00:15:09.381Z,4.57
2018-05-10T00:15:45.865Z,4.20
2018-05-10T00:16:25.802Z,4.22
2018-05-10T00:17:11.526Z,4.45
2018-05-10T00:17:47.886Z,4.20
2018-05-10T00:18:26.922Z,3.87
2018-05-10T00:19:06.959Z,4.30
2018-05-10T00:19:40.245Z,3.90
2018-05-10T00:20:24.914Z,4.20
2018-05-10T00:21:05.447Z,4.28
2018-05-10T00:21:50.065Z,4.82
2018-05-10T00:22:30.595Z,4.30
2018-05-10T00:23:09.930Z,4.47
2018-05-10T00:23:45.621Z,3.90
2018-05-10T00:24:18.977Z,3.70
2018-05-10T00:24:55.105Z,4.15
2018-05-10T00:25:31.046Z,3.65
2018-05-10T00:26:07.480Z,4.20
2018-05-10T00:26:49.973Z,4.20
2018-05-10T00:27:30.444Z,3.90
2018-05-10T00:29:35.216Z,3.80
2018-05-10T00:30:10.330Z,3.90
2018-05-10T00:30:47.638Z,4.30
2018-05-10T00:31:23.215Z,4.70
2018-05-10T00:32:03.968Z,3.90
2018-05-10T00:32:42.692Z,3.78
2018-05-10T00:33:23.127Z,4.10
2018-05-10T00:33:58.304Z,4.22
2018-05-10T00:34:37.450Z,3.60
2018-05-10T00:35:15.811Z,4.60
2018-05-10T00:35:56.120Z,4.20
2018-05-10T00:36:31.392Z,3.90
2018-05-10T00:37:11.918Z,5.00
2018-05-10T00:37:47.538Z,4.10
2018-05-10T00:38:34.868Z,4.40
2018-05-10T00:39:10.330Z,4.30
2018-05-10T00:39:43.589Z,4.43
2018-05-10T00:40:20.569Z,4.32
2018-05-10T00:40:56.509Z,4.40
2018-05-10T00:41:35.911Z,4.43
2018-05-10T00:42:11.580Z,4.40
2018-05-10T00:42:49.927Z,4.62
2018-05-10T00:43:24.205Z,4.95
2018-05-10T00:43:59.548Z,4.43
2018-05-10T00:44:33.521Z,4.43
2018-05-10T00:45:08.372Z,4.12
2018-05-10T00:45:44.170Z,4.50
2018-05-10T00:46:23.482Z,4.22
2018-05-10T00:46:59.462Z,4.22
2018-05-10T00:47:38.461Z,4.55
2018-05-10T00:48:20.439Z,4.55
2018-05-10T00:48:58.045Z,4.70
2018-05-10T00:49:35.834Z,4.35
2018-05-10T00:50:10.484Z,3.95
2018-05-10T00:50:46.622Z,4.22
2018-05-10T00:51:21.452Z,4.78
2018-05-10T00:51:55.537Z,4.47
2018-05-10T00:52:34.529Z,3.70
2018-05-10T00:53:11.986Z,4.40
2018-05-10T00:53:54.558Z,4.25
2018-05-10T00:54:46.032Z,4.78
2018-05-10T00:55:22.945Z,4.62
2018-05-10T00:55:57.277Z,4.57
2018-05-10T00:56:32.912Z,4.22
2018-05-10T00:57:56.987Z,5.10
2018-05-10T00:58:33.629Z,4.57
2018-05-10T00:59:11.680Z,5.18
2018-05-10T00:59:50.680Z,4.78
2018-05-10T01:00:25.958Z,4.65
2018-05-10T01:01:01.767Z,4.12
2018-05-10T01:01:41.385Z,4.82
2018-05-10T01:02:16.758Z,4.20
2018-05-10T01:02:54.853Z,4.55
2018-05-10T01:03:30.746Z,4.22
2018-05-10T01:04:13.345Z,4.50
2018-05-10T01:04:51.997Z,4.40
2018-05-10T01:05:28.148Z,4.55
2018-05-10T01:06:07.098Z,4.32
2018-05-10T01:06:47.196Z,4.18
2018-05-10T01:07:21.970Z,5.10
2018-05-10T01:07:57.169Z,4.53
2018-05-10T01:08:33.212Z,4.68
2018-05-10T01:09:08.023Z,4.22
2018-05-10T01:09:47.185Z,4.87
2018-05-10T01:10:28.580Z,4.50
2018-05-10T01:11:10.337Z,4.85
2018-05-10T01:11:48.887Z,4.53
2018-05-10T01:12:25.874Z,4.68
2018-05-10T01:13:01.469Z,4.97
2018-05-10T01:13:38.063Z,4.55
2018-05-10T01:14:16.700Z,4.30
2018-05-10T01:14:55.952Z,4.30
2018-05-10T01:15:33.831Z,4.70
2018-05-10T01:16:08.850Z,4.43
2018-05-10T01:16:42.820Z,4.68
2018-05-10T01:17:59.680Z,4.82
2018-05-10T01:18:37.066Z,4.87
2018-05-10T01:19:13.713Z,5.18
2018-05-10T01:19:47.868Z,4.72
2018-05-10T01:20:33.604Z,4.85
2018-05-10T01:21:09.253Z,4.30
2018-05-10T01:21:49.124Z,4.50
2018-05-10T01:22:25.425Z,4.82
2018-05-10T01:23:04.276Z,4.47
2018-05-10T01:23:39.920Z,3.97
2018-05-10T01:24:16.841Z,4.68
2018-05-10T01:24:52.677Z,4.87
2018-05-10T01:25:29.258Z,4.90
2018-05-10T01:26:06.917Z,4.50
2018-05-10T01:26:41.888Z,4.60
2018-05-10T01:27:16.821Z,5.40
2018-05-10T01:27:54.038Z,4.85
2018-05-10T01:28:35.843Z,4.70
2018-05-10T01:29:11.808Z,5.18
2018-05-10T01:29:57.479Z,5.10
2018-05-10T01:30:32.797Z,5.30
2018-05-10T01:31:10.300Z,4.40
2018-05-10T01:31:52.628Z,4.65
2018-05-10T01:32:33.531Z,4.50
2018-05-10T01:33:08.297Z,5.18
2018-05-10T01:33:46.956Z,5.00
2018-05-10T01:34:21.960Z,4.47
2018-05-10T01:35:10.046Z,5.03
2018-05-10T01:35:59.398Z,4.87
2018-05-10T01:36:38.010Z,4.57
2018-05-10T01:37:19.172Z,4.47
2018-05-10T01:38:01.381Z,4.70
2018-05-10T01:38:46.264Z,4.57
2018-05-10T01:39:21.400Z,4.60
2018-05-10T01:39:56.929Z,4.60
2018-05-10T01:40:32.384Z,4.50
2018-05-10T01:41:08.797Z,4.43
2018-05-10T01:41:46.168Z,4.80
2018-05-10T01:43:03.985Z,4.45
2018-05-10T01:43:37.262Z,4.72
2018-05-10T01:44:15.350Z,4.60
2018-05-10T01:44:51.925Z,4.90
2018-05-10T01:46:12.993Z,4.55
2018-05-10T01:46:49.473Z,4.97
2018-05-10T01:47:34.279Z,4.43
2018-05-10T01:48:20.860Z,4.90
2018-05-10T01:50:01.907Z,4.90
2018-05-10T01:50:45.499Z,4.72
2018-05-10T01:51:21.070Z,5.00
2018-05-10T01:51:59.839Z,4.75
2018-05-10T01:52:40.449Z,5.25
2018-05-10T01:53:18.218Z,4.60
2018-05-10T01:53:54.271Z,4.85
2018-05-10T01:54:28.562Z,4.68
2018-05-10T01:55:09.956Z,4.75
2018-05-10T01:55:47.236Z,4.80
2018-05-10T01:56:27.242Z,4.10
2018-05-10T01:58:29.132Z,4.85
2018-05-10T01:59:07.575Z,4.50
2018-05-10T01:59:45.605Z,5.07
2018-05-10T02:01:05.157Z,4.53
2018-05-10T02:01:44.236Z,4.55
2018-05-10T02:02:18.784Z,4.50
2018-05-10T02:02:54.401Z,4.55
2018-05-10T02:03:35.575Z,4.40
2018-05-10T02:04:13.782Z,4.22
2018-05-10T02:04:57.401Z,4.15
2018-05-10T02:05:38.725Z,4.60
2018-05-10T02:06:16.204Z,3.97
2018-05-10T02:06:58.853Z,4.65
2018-05-10T02:07:36.402Z,4.22
2018-05-10T02:08:14.072Z,4.60
2018-05-10T02:08:49.925Z,3.72
2018-05-10T02:09:25.609Z,3.97
2018-05-10T02:10:06.171Z,4.22
2018-05-10T02:10:50.292Z,4.15
2018-05-10T02:11:26.155Z,4.40
2018-05-10T02:12:01.950Z,4.68
2018-05-10T02:12:39.648Z,4.20
2018-05-10T02:13:18.997Z,4.22
2018-05-10T02:14:00.468Z,4.78
2018-05-10T02:14:36.079Z,4.18
2018-05-10T02:15:15.384Z,4.00
2018-05-10T02:15:58.236Z,4.75
2018-05-10T02:16:35.241Z,4.20
2018-05-10T02:17:12.590Z,4.45
2018-05-10T02:18:28.734Z,4.25
2018-05-10T02:19:04.280Z,4.12
2018-05-10T02:19:45.782Z,4.20
2018-05-10T02:20:21.930Z,5.30
2018-05-10T02:20:57.603Z,4.90
2018-05-10T02:22:14.608Z,4.35
2018-05-10T02:22:53.200Z,4.62
2018-05-10T02:23:31.107Z,4.53
2018-05-10T02:24:16.717Z,4.57
2018-05-10T02:24:57.387Z,4.62
2018-05-10T02:25:34.091Z,4.05
2018-05-10T02:26:12.713Z,4.18
2018-05-10T02:26:46.911Z,4.55
2018-05-10T02:27:23.962Z,5.00
2018-05-10T02:28:04.881Z,4.72
2018-05-10T02:28:48.970Z,4.32
2018-05-10T02:29:27.530Z,4.50
2018-05-10T02:30:04.833Z,4.93
2018-05-10T02:30:41.926Z,4.70
2018-05-10T02:31:17.821Z,4.35
2018-05-10T02:31:57.017Z,4.72
2018-05-10T02:32:35.773Z,4.47
2018-05-10T02:33:52.210Z,5.00
2018-05-10T02:34:26.472Z,4.68
2018-05-10T02:35:11.667Z,4.78
2018-05-10T02:35:55.083Z,4.85
2018-05-10T02:36:46.435Z,5.28
2018-05-10T02:37:30.544Z,4.68
2018-05-10T02:38:05.522Z,5.03
2018-05-10T02:38:45.429Z,5.00
2018-05-10T02:39:25.432Z,5.47
2018-05-10T02:40:03.813Z,5.50
2018-05-10T02:40:40.340Z,5.55
2018-05-10T02:41:18.945Z,4.97
2018-05-10T02:41:55.113Z,4.97
2018-05-10T02:42:34.960Z,4.90
2018-05-10T02:43:10.168Z,4.80
2018-05-10T02:43:46.912Z,5.40
2018-05-10T02:44:25.029Z,4.78
2018-05-10T02:45:03.718Z,5.65
2018-05-10T02:45:40.408Z,4.47
2018-05-10T02:46:16.078Z,4.97
2018-05-10T02:46:49.375Z,5.18
2018-05-10T02:47:28.826Z,5.07
2018-05-10T02:48:06.579Z,5.25
2018-05-10T02:48:50.396Z,4.97
2018-05-10T02:49:35.920Z,4.93
2018-05-10T02:50:11.256Z,4.87
2018-05-10T02:50:54.610Z,5.45
2018-05-10T02:51:30.301Z,5.65
2018-05-10T02:52:06.860Z,5.05
2018-05-10T02:52:44.377Z,5.28
2018-05-10T02:53:58.636Z,4.87
2018-05-10T02:54:37.233Z,5.40
2018-05-10T02:55:13.534Z,5.40
2018-05-10T02:55:52.458Z,5.05
2018-05-10T02:56:27.563Z,5.85
2018-05-10T02:57:15.470Z,5.37
2018-05-10T02:57:52.151Z,5.10
2018-05-10T02:58:27.221Z,5.85
2018-05-10T02:59:09.078Z,5.90
2018-05-10T02:59:49.689Z,5.85
2018-05-10T03:00:25.357Z,5.40
2018-05-10T03:01:02.307Z,6.10
2018-05-10T03:01:42.061Z,5.20
2018-05-10T03:02:20.501Z,5.53
2018-05-10T03:02:55.657Z,5.57
2018-05-10T03:03:31.564Z,5.85
2018-05-10T03:04:23.751Z,5.37
2018-05-10T03:05:01.984Z,5.32
2018-05-10T03:05:38.726Z,5.70
2018-05-10T03:06:14.198Z,5.93
2018-05-10T03:08:58.961Z,5.70
2018-05-10T03:09:34.166Z,6.07
2018-05-10T03:10:09.681Z,5.30
2018-05-10T03:10:46.377Z,5.97
2018-05-10T03:11:21.137Z,5.65
2018-05-10T03:12:42.850Z,6.45
2018-05-10T03:13:19.473Z,6.40
2018-05-10T03:13:56.764Z,5.78
2018-05-10T03:14:35.942Z,5.93
2018-05-10T03:15:14.376Z,6.60
2018-05-10T03:15:50.009Z,5.95
2018-05-10T03:16:25.969Z,5.80
2018-05-10T03:17:05.150Z,5.78
2018-05-10T03:17:43.682Z,6.05
2018-05-10T03:18:23.151Z,5.95
2018-05-10T03:19:01.140Z,5.87
2018-05-10T03:19:53.185Z,5.57
2018-05-10T03:20:38.268Z,6.15
2018-05-10T03:21:18.095Z,5.82
2018-05-10T03:22:40.051Z,6.10
2018-05-10T03:23:13.997Z,5.75
2018-05-10T03:23:55.537Z,5.87
2018-05-10T03:24:30.578Z,6.62
2018-05-10T03:25:04.685Z,6.32
2018-05-10T03:25:42.639Z,5.70
2018-05-10T03:26:19.552Z,6.32
2018-05-10T03:26:56.365Z,5.78
2018-05-10T03:27:35.518Z,6.00
2018-05-10T03:28:23.057Z,5.82
2018-05-10T03:29:06.115Z,6.07
2018-05-10T03:29:43.563Z,6.45
2018-05-10T03:30:19.759Z,6.55
2018-05-10T03:30:54.169Z,6.43
2018-05-10T03:31:32.254Z,5.35
2018-05-10T03:32:05.917Z,5.60
2018-05-10T03:32:42.950Z,6.07
2018-05-10T03:33:21.634Z,6.53
2018-05-10T03:34:02.691Z,6.35
2018-05-10T03:34:39.524Z,5.57
2018-05-10T03:35:13.309Z,5.78
2018-05-10T03:35:47.606Z,5.97
2018-05-10T03:36:21.343Z,5.82
2018-05-10T03:36:56.753Z,6.30
2018-05-10T03:37:43.117Z,6.20
2018-05-10T03:38:26.049Z,6.05
2018-05-10T03:39:04.345Z,5.75
2018-05-10T03:39:42.654Z,6.53
2018-05-10T03:40:16.809Z,5.45
2018-05-10T03:40:52.676Z,5.70
2018-05-10T03:41:29.231Z,6.15
2018-05-10T03:42:03.525Z,5.65
2018-05-10T03:42:47.834Z,6.28
2018-05-10T03:43:23.725Z,6.03
2018-05-10T03:44:04.120Z,6.45
2018-05-10T03:44:43.620Z,6.05
2018-05-10T03:45:23.143Z,6.60
2018-05-10T03:45:57.162Z,5.95
2018-05-10T03:46:33.925Z,6.60
2018-05-10T03:47:08.521Z,6.05
2018-05-10T03:47:44.524Z,6.37
2018-05-10T03:48:23.300Z,6.75
2018-05-10T03:49:03.689Z,6.60
2018-05-10T03:49:39.243Z,5.97
2018-05-10T03:50:16.389Z,5.97
2018-05-10T03:50:52.567Z,6.18
2018-05-10T03:51:28.471Z,6.20
2018-05-10T03:52:07.138Z,6.25
2018-05-10T03:52:50.237Z,6.95
2018-05-10T03:53:24.452Z,6.28
2018-05-10T03:54:03.160Z,7.50
2018-05-10T03:54:40.170Z,6.70
2018-05-10T03:55:14.391Z,7.20
2018-05-10T03:55:55.225Z,6.78
2018-05-10T03:56:31.205Z,6.78
2018-05-10T03:57:10.433Z,6.87
2018-05-10T03:57:46.885Z,6.95
2018-05-10T03:58:22.276Z,7.25
2018-05-10T03:58:59.189Z,8.75
2018-05-10T03:59:36.723Z,10.35
2018-05-10T04:00:14.327Z,8.98
2018-05-10T04:00:56.865Z,8.48
2018-05-10T04:02:23.376Z,9.45
2018-05-10T04:04:36.277Z,12.10
2018-05-10T04:06:14.798Z,11.85
2018-05-10T04:07:02.582Z,12.55
2018-05-10T04:08:41.415Z,13.40
2018-05-10T04:09:26.889Z,13.88
2018-05-10T04:10:15.985Z,14.35
2018-05-10T04:11:04.805Z,15.82
2018-05-10T04:11:42.714Z,16.42
2018-05-10T04:12:23.896Z,14.87
2018-05-10T04:13:11.950Z,15.52
2018-05-10T04:13:49.212Z,16.58
2018-05-10T04:14:25.123Z,15.80
2018-05-10T04:14:58.777Z,16.62
2018-05-10T04:15:42.060Z,17.10
2018-05-10T04:16:21.230Z,18.05
2018-05-10T04:16:55.362Z,17.08
2018-05-10T04:17:32.823Z,19.02
2018-05-10T04:18:11.046Z,18.17
2018-05-10T04:18:45.541Z,17.37
2018-05-10T04:19:25.338Z,18.35
2018-05-10T04:20:01.959Z,17.85
2018-05-10T04:20:43.504Z,16.42
2018-05-10T04:21:18.532Z,17.30
2018-05-10T04:21:58.885Z,17.70
2018-05-10T04:23:25.070Z,16.95
2018-05-10T04:24:04.731Z,17.83
2018-05-10T04:24:49.648Z,17.10
2018-05-10T04:25:34.594Z,19.10
2018-05-10T04:26:08.566Z,19.98
2018-05-10T04:26:43.464Z,20.10
2018-05-10T04:27:17.543Z,21.05
2018-05-10T04:27:55.481Z,21.52
2018-05-10T04:28:29.558Z,20.75
2018-05-10T04:29:04.821Z,21.60
2018-05-10T04:30:31.169Z,21.55
2018-05-10T04:31:09.512Z,21.95
2018-05-10T04:32:52.770Z,18.77
2018-05-10T04:33:27.789Z,25.15
2018-05-10T04:34:02.357Z,24.67
2018-05-10T04:34:40.045Z,24.58
2018-05-10T04:35:23.746Z,25.15
2018-05-10T04:36:44.220Z,25.75
2018-05-10T04:38:05.561Z,26.92
2018-05-10T04:38:42.065Z,26.70
2018-05-10T04:39:21.286Z,25.37
2018-05-10T04:40:04.144Z,27.33
2018-05-10T04:40:43.004Z,26.67
2018-05-10T04:41:23.386Z,28.75
2018-05-10T04:41:59.454Z,28.60
2018-05-10T04:42:34.877Z,27.35
2018-05-10T04:43:14.273Z,29.50
2018-05-10T04:43:57.529Z,29.30
2018-05-10T04:44:41.152Z,30.08
2018-05-10T04:45:33.484Z,29.87
2018-05-10T04:46:09.566Z,31.10
2018-05-10T04:46:47.969Z,31.92
2018-05-10T04:47:26.694Z,29.60
2018-05-10T04:48:11.839Z,31.37
2018-05-10T04:48:49.237Z,30.88
2018-05-10T04:49:24.365Z,31.80
2018-05-10T04:50:01.937Z,32.88
2018-05-10T04:50:37.344Z,32.85
2018-05-10T04:51:14.761Z,30.52
2018-05-10T04:51:54.525Z,31.70
2018-05-10T04:52:36.393Z,32.55
2018-05-10T04:53:14.264Z,31.00
2018-05-10T04:53:51.172Z,31.98
2018-05-10T04:54:28.383Z,32.80
2018-05-10T04:55:05.172Z,32.00
2018-05-10T04:55:40.243Z,31.95
2018-05-10T04:56:24.694Z,33.58
2018-05-10T04:57:03.562Z,32.30
2018-05-10T04:57:45.972Z,34.03
2018-05-10T04:58:25.197Z,31.33
2018-05-10T04:59:08.124Z,32.88
2018-05-10T04:59:52.656Z,36.40
2018-05-10T05:00:28.618Z,33.47
2018-05-10T05:01:06.228Z,32.33
2018-05-10T05:01:41.824Z,34.05
2018-05-10T05:02:17.524Z,36.65
2018-05-10T05:02:54.705Z,35.65
2018-05-10T05:03:30.515Z,33.15
2018-05-10T05:04:06.125Z,34.97
2018-05-10T05:04:42.424Z,35.35
2018-05-10T05:05:20.581Z,36.55
2018-05-10T05:05:57.543Z,34.22
2018-05-10T05:06:35.361Z,37.17
2018-05-10T05:07:09.969Z,35.53
2018-05-10T05:07:47.461Z,37.00
2018-05-10T05:08:27.356Z,35.47
2018-05-10T05:09:03.323Z,39.10
2018-05-10T05:09:38.350Z,38.28
2018-05-10T05:10:15.297Z,38.50
2018-05-10T05:11:07.398Z,39.90
2018-05-10T05:11:52.391Z,36.28
2018-05-10T05:12:30.148Z,36.38
2018-05-10T05:13:05.756Z,38.50
2018-05-10T05:13:41.646Z,36.08
2018-05-10T05:14:22.316Z,38.58
2018-05-10T05:15:42.599Z,36.25
2018-05-10T05:16:19.194Z,36.40
2018-05-10T05:16:53.495Z,36.97
2018-05-10T05:17:36.398Z,35.17
2018-05-10T05:18:14.868Z,35.95
2018-05-10T05:19:01.898Z,33.72
2018-05-10T05:19:44.426Z,37.67
2018-05-10T05:20:25.078Z,36.10
2018-05-10T05:21:01.373Z,35.03
2018-05-10T05:21:39.245Z,33.40
2018-05-10T05:22:16.406Z,38.13
2018-05-10T05:22:52.396Z,36.42
2018-05-10T05:23:28.235Z,37.05
2018-05-10T05:24:03.767Z,35.95
2018-05-10T05:24:42.168Z,34.95
2018-05-10T05:25:18.138Z,35.45
2018-05-10T05:25:54.833Z,37.80
2018-05-10T05:26:32.335Z,37.92
2018-05-10T05:27:18.457Z,35.00
2018-05-10T05:27:57.869Z,37.97
2018-05-10T05:28:35.328Z,37.13
2018-05-10T05:29:18.500Z,36.95
2018-05-10T05:29:57.605Z,36.03
2018-05-10T05:31:15.723Z,35.80
2018-05-10T05:31:57.838Z,37.72
2018-05-10T05:32:36.523Z,37.58
2018-05-10T05:33:19.216Z,35.58
2018-05-10T05:35:30.857Z,35.75
2018-05-10T05:36:05.453Z,37.10
2018-05-10T05:36:41.551Z,35.40
2018-05-10T05:37:19.136Z,36.15
2018-05-10T05:37:59.316Z,35.22
2018-05-10T05:38:37.231Z,36.83
2018-05-10T05:39:18.880Z,36.30
2018-05-10T05:39:54.245Z,36.97
2018-05-10T05:40:43.866Z,37.78
2018-05-10T05:41:23.019Z,37.42
2018-05-10T05:41:59.644Z,37.58
2018-05-10T05:42:37.423Z,36.70
2018-05-10T05:43:38.693Z,36.35
2018-05-10T05:44:24.369Z,33.78
2018-05-10T05:44:59.351Z,33.22
2018-05-10T05:45:39.028Z,37.05
2018-05-10T05:46:16.086Z,36.50
2018-05-10T05:46:50.804Z,34.75
2018-05-10T05:47:28.608Z,36.22
2018-05-10T05:48:16.370Z,37.20
2018-05-10T05:48:56.103Z,36.22
2018-05-10T05:49:32.775Z,36.65
2018-05-10T05:50:09.591Z,36.47
2018-05-10T05:50:45.223Z,35.55
2018-05-10T05:51:30.870Z,38.40
2018-05-10T05:52:08.517Z,37.03
2018-05-10T05:52:47.167Z,34.50
2018-05-10T05:53:25.316Z,37.45
2018-05-10T05:54:01.511Z,37.33
2018-05-10T05:54:41.956Z,36.65
2018-05-10T05:55:16.767Z,37.70
2018-05-10T05:56:36.012Z,35.47
2018-05-10T05:57:18.804Z,35.20
2018-05-10T05:58:59.933Z,38.22
2018-05-10T06:00:15.141Z,37.72
2018-05-10T06:00:54.099Z,35.38
2018-05-10T06:01:33.614Z,36.00
2018-05-10T06:02:18.359Z,36.78
2018-05-10T06:02:57.836Z,36.22
2018-05-10T06:03:36.016Z,35.13
2018-05-10T06:05:02.316Z,35.47
2018-05-10T06:05:37.937Z,34.35
2018-05-10T06:06:14.805Z,36.88
2018-05-10T06:06:50.700Z,36.42
2018-05-10T06:07:26.620Z,37.45
2018-05-10T06:08:09.493Z,36.95
2018-05-10T06:08:46.503Z,36.83
2018-05-10T06:09:29.311Z,34.40
2018-05-10T06:10:05.228Z,37.25
2018-05-10T06:10:47.423Z,38.90
2018-05-10T06:12:04.820Z,37.33
2018-05-10T06:12:45.354Z,37.42
2018-05-10T06:13:20.943Z,35.45
2018-05-10T06:13:55.962Z,36.63
2018-05-10T06:14:32.471Z,37.92
2018-05-10T06:15:09.559Z,38.30
2018-05-10T06:15:52.049Z,38.08
2018-05-10T06:16:30.301Z,37.55
2018-05-10T06:17:13.653Z,39.35
2018-05-10T06:17:53.287Z,34.65
2018-05-10T06:18:27.128Z,37.38
2018-05-10T06:19:05.196Z,37.15
2018-05-10T06:19:45.806Z,37.22
2018-05-10T06:20:23.355Z,37.85
2018-05-10T06:22:35.091Z,35.67
2018-05-10T06:23:12.427Z,37.08
2018-05-10T06:23:51.717Z,36.38
2018-05-10T06:24:35.929Z,38.97
2018-05-10T06:25:11.805Z,37.75
2018-05-10T06:25:45.493Z,38.13
2018-05-10T06:26:22.557Z,37.65
2018-05-10T06:27:01.281Z,36.33
2018-05-10T06:28:19.217Z,36.88
2018-05-10T06:28:56.399Z,38.13
2018-05-10T06:29:36.524Z,39.03
2018-05-10T06:30:12.420Z,34.42
2018-05-10T06:30:48.027Z,35.88
2018-05-10T06:31:25.721Z,34.78
2018-05-10T06:31:59.012Z,38.05
2018-05-10T06:32:37.862Z,35.85
2018-05-10T06:33:16.314Z,35.78
2018-05-10T06:33:51.132Z,36.55
2018-05-10T06:34:27.616Z,36.97
2018-05-10T06:35:04.607Z,36.83
2018-05-10T06:35:41.640Z,36.45
2018-05-10T06:36:18.083Z,34.47
2018-05-10T06:36:58.897Z,35.70
2018-05-10T06:37:34.674Z,37.83
2018-05-10T06:38:12.824Z,35.92
2018-05-10T06:38:49.272Z,33.13
2018-05-10T06:39:29.673Z,34.15
2018-05-10T06:40:19.079Z,33.83
2018-05-10T06:40:58.015Z,35.15
2018-05-10T06:41:35.975Z,34.28
2018-05-10T06:42:10.164Z,35.08
2018-05-10T06:42:49.564Z,33.55
2018-05-10T06:43:28.437Z,34.30
2018-05-10T06:44:04.790Z,32.88
2018-05-10T06:44:40.800Z,33.30
2018-05-10T06:45:17.324Z,34.47
2018-05-10T06:45:53.578Z,33.35
2018-05-10T06:46:37.267Z,33.40
2018-05-10T06:47:12.349Z,31.40
2018-05-10T06:47:49.209Z,32.03
2018-05-10T06:48:30.837Z,33.47
2018-05-10T06:49:07.533Z,34.42
2018-05-10T06:49:42.697Z,32.85
2018-05-10T06:50:21.618Z,34.35
2018-05-10T06:50:57.301Z,32.70
2018-05-10T06:51:31.581Z,33.33
2018-05-10T06:52:06.851Z,34.03
2018-05-10T06:52:44.619Z,32.75
2018-05-10T06:53:22.603Z,31.30
2018-05-10T06:54:01.212Z,32.85
2018-05-10T06:54:36.068Z,31.02
2018-05-10T06:55:14.013Z,31.83
2018-05-10T06:55:50.717Z,34.42
2018-05-10T06:56:27.749Z,31.90
2018-05-10T06:57:09.748Z,31.15
2018-05-10T06:57:46.138Z,30.23
2018-05-10T06:58:30.270Z,32.58
2018-05-10T06:59:14.782Z,32.17
2018-05-10T06:59:50.824Z,30.10
2018-05-10T07:00:25.669Z,31.42
2018-05-10T07:00:59.912Z,28.87
2018-05-10T07:01:37.139Z,30.70
2018-05-10T07:02:13.340Z,31.27
2018-05-10T07:02:57.609Z,29.45
2018-05-10T07:03:38.208Z,29.30
2018-05-10T07:04:12.330Z,28.48
2018-05-10T07:04:51.837Z,31.00
2018-05-10T07:05:28.760Z,30.10
2018-05-10T07:06:15.060Z,29.87
2018-05-10T07:06:48.366Z,30.17
2018-05-10T07:07:24.273Z,29.70
2018-05-10T07:08:18.710Z,30.30
2018-05-10T07:09:04.349Z,29.63
2018-05-10T07:10:24.856Z,30.52
2018-05-10T07:10:59.596Z,29.30
2018-05-10T07:11:36.389Z,27.65
2018-05-10T07:12:13.518Z,28.25
2018-05-10T07:12:48.021Z,27.02
2018-05-10T07:13:25.761Z,30.02
2018-05-10T07:14:04.901Z,30.05
2018-05-10T07:14:51.679Z,29.25
2018-05-10T07:16:11.448Z,27.83
2018-05-10T07:16:50.003Z,27.10
2018-05-10T07:17:26.230Z,28.42
2018-05-10T07:18:01.790Z,28.77
2018-05-10T07:18:38.029Z,28.08
2018-05-10T07:19:26.355Z,28.58
2018-05-10T07:20:06.245Z,28.20
2018-05-10T07:20:46.637Z,29.48
2018-05-10T07:21:21.516Z,28.80
2018-05-10T07:22:00.258Z,28.65
2018-05-10T07:22:37.960Z,28.55
2018-05-10T07:23:14.616Z,27.52
2018-05-10T07:23:50.769Z,27.95
2018-05-10T07:24:26.666Z,27.87
2018-05-10T07:25:01.408Z,29.05
2018-05-10T07:25:39.182Z,28.23
2018-05-10T07:26:16.658Z,26.95
2018-05-10T07:26:50.760Z,28.77
2018-05-10T07:27:26.401Z,25.20
2018-05-10T07:28:07.060Z,29.12
2018-05-10T07:28:43.659Z,28.08
2018-05-10T07:29:19.139Z,28.10
2018-05-10T07:29:54.795Z,28.92
2018-05-10T07:30:31.139Z,28.95
2018-05-10T07:31:09.114Z,27.92
2018-05-10T07:31:45.347Z,26.60
2018-05-10T07:32:18.638Z,27.20
2018-05-10T07:32:56.617Z,27.05
2018-05-10T07:33:31.748Z,27.67
2018-05-10T07:34:07.056Z,28.98
2018-05-10T07:34:43.976Z,27.77
2018-05-10T07:35:22.609Z,29.12
2018-05-10T07:35:56.273Z,29.50
2018-05-10T07:36:34.702Z,25.42
2018-05-10T07:37:09.255Z,27.95
2018-05-10T07:37:46.990Z,26.98
2018-05-10T07:38:21.606Z,28.77
2018-05-10T07:39:49.557Z,29.85
2018-05-10T07:40:31.278Z,26.83
2018-05-10T07:41:10.376Z,26.25
2018-05-10T07:41:48.962Z,29.25
2018-05-10T07:42:23.450Z,28.98
2018-05-10T07:43:01.589Z,28.45
2018-05-10T07:43:40.570Z,30.65
2018-05-10T07:44:15.718Z,30.52
2018-05-10T07:44:56.353Z,29.30
2018-05-10T07:45:38.782Z,29.77
2018-05-10T07:46:24.420Z,25.98
2018-05-10T07:47:06.976Z,27.05
2018-05-10T07:47:43.589Z,29.60
2018-05-10T07:48:25.402Z,27.92
2018-05-10T07:49:00.387Z,28.67
2018-05-10T07:49:36.908Z,29.55
2018-05-10T07:50:15.566Z,29.50
2018-05-10T07:50:50.482Z,29.23
2018-05-10T07:51:26.230Z,29.80
2018-05-10T07:52:01.961Z,29.00
2018-05-10T07:52:49.250Z,29.05
2018-05-10T07:53:26.164Z,30.37
2018-05-10T07:54:03.438Z,30.75
2018-05-10T07:54:38.286Z,29.73
2018-05-10T07:55:15.808Z,29.20
2018-05-10T07:55:59.950Z,28.60
2018-05-10T07:56:38.020Z,28.77
2018-05-10T07:57:14.799Z,30.02
2018-05-10T07:57:50.799Z,29.12
2018-05-10T07:58:25.303Z,28.98
2018-05-10T07:58:59.465Z,29.17
2018-05-10T07:59:33.568Z,29.40
2018-05-10T08:00:18.057Z,29.55
2018-05-10T08:00:55.241Z,27.98
2018-05-10T08:01:34.293Z,28.30
2018-05-10T08:02:07.584Z,27.25
2018-05-10T08:02:47.853Z,28.58
2018-05-10T08:03:24.023Z,28.60
2018-05-10T08:04:00.415Z,28.38
2018-05-10T08:04:36.473Z,28.67
2018-05-10T08:05:12.309Z,25.98
2018-05-10T08:05:50.377Z,25.20
2018-05-10T08:06:28.349Z,26.62
2018-05-10T08:07:03.189Z,26.52
2018-05-10T08:07:42.542Z,27.40
2018-05-10T08:08:17.686Z,27.25
2018-05-10T08:08:52.771Z,27.27
2018-05-10T08:09:30.731Z,26.30
2018-05-10T08:10:09.611Z,27.55
2018-05-10T08:10:44.830Z,26.75
2018-05-10T08:11:20.421Z,28.62
2018-05-10T08:12:03.556Z,28.58
2018-05-10T08:12:42.738Z,27.25
2018-05-10T08:13:25.334Z,26.23
2018-05-10T08:14:02.010Z,26.27
2018-05-10T08:14:41.081Z,26.40
2018-05-10T08:15:16.765Z,28.30
2018-05-10T08:16:00.864Z,26.75
2018-05-10T08:16:40.941Z,27.27
2018-05-10T08:17:18.341Z,25.88
2018-05-10T08:17:53.523Z,25.08
2018-05-10T08:18:28.631Z,27.33
2018-05-10T08:19:06.317Z,25.92
2018-05-10T08:19:44.351Z,26.17
2018-05-10T08:20:19.800Z,24.48
2018-05-10T08:20:59.685Z,26.92
2018-05-10T08:21:36.377Z,26.30
2018-05-10T08:22:12.470Z,26.90
2018-05-10T08:22:47.946Z,26.20
2018-05-10T08:24:06.534Z,26.40
2018-05-10T08:24:45.600Z,25.67
2018-05-10T08:25:20.834Z,24.90
2018-05-10T08:25:58.924Z,24.17
2018-05-10T08:26:34.613Z,25.35
2018-05-10T08:27:19.561Z,24.52
2018-05-10T08:27:54.585Z,24.27
2018-05-10T08:28:30.612Z,24.77
2018-05-10T08:29:11.380Z,24.75
2018-05-10T08:29:50.257Z,24.15
2018-05-10T08:30:25.208Z,23.33
2018-05-10T08:31:06.037Z,24.83
2018-05-10T08:32:02.151Z,24.02
2018-05-10T08:32:36.394Z,22.05
2018-05-10T08:33:16.631Z,24.55
2018-05-10T08:33:53.294Z,24.95
2018-05-10T08:34:28.715Z,23.52
2018-05-10T08:35:10.667Z,24.10
2018-05-10T08:35:45.687Z,24.40
2018-05-10T08:36:25.635Z,25.10
2018-05-10T08:37:01.797Z,24.17
2018-05-10T08:38:29.832Z,22.90
2018-05-10T08:39:06.632Z,22.75
2018-05-10T08:39:44.605Z,22.67
2018-05-10T08:40:19.932Z,23.87
2018-05-10T08:40:55.137Z,24.55
2018-05-10T08:41:29.381Z,23.00
2018-05-10T08:42:13.730Z,24.02
2018-05-10T08:42:52.044Z,22.10
2018-05-10T08:43:30.545Z,22.40
2018-05-10T08:44:06.177Z,22.13
2018-05-10T08:44:45.597Z,24.00
2018-05-10T08:45:23.360Z,23.58
2018-05-10T08:45:58.793Z,22.65
2018-05-10T08:46:33.549Z,24.20
2018-05-10T08:47:14.412Z,22.27
2018-05-10T08:47:49.905Z,23.17
2018-05-10T08:48:41.020Z,23.98
2018-05-10T08:49:18.700Z,23.12
2018-05-10T08:49:58.774Z,21.20
2018-05-10T08:50:36.646Z,21.67
2018-05-10T08:51:09.931Z,24.00
2018-05-10T08:51:50.449Z,24.42
2018-05-10T08:52:27.641Z,23.27
2018-05-10T08:53:02.483Z,22.73
2018-05-10T08:53:37.384Z,22.92
2018-05-10T08:54:13.014Z,23.12
2018-05-10T08:54:54.913Z,24.15
2018-05-10T08:55:34.298Z,23.38
2018-05-10T08:56:09.464Z,22.67
2018-05-10T08:56:47.728Z,22.40
2018-05-10T08:57:25.907Z,22.25
2018-05-10T08:58:01.318Z,23.02